Temp: 6.7°C   Baro: 1002.2mb
  Wind: 11.0mph   Dir: SSE (154°)
  Rain: 0.2mm (0.0mm/hr)
  Solar: 93W/m2  Hum: 85%

  • No weather warnings have been issued for the Bath area at this time.

10 day detailed forecast for Bath, United Kingdom

Last update: 11.12.2019 08:45
Next update: 11.12.2019 14:44
Latitude: 51.38° N
Longitude: 2.36° W
meteogram
    Temperature Precipitation Pressure Wind Humidity Clouds Fog
 08:04     16:00 Today
12:00   1001.9 mb 12 mph 80% 98%
13:00 1.0 mm 1001.0 mb 11 mph 87% 73%
14:00 0.3 mm 1000.8 mb 13 mph 86% 56%
15:00 0.1 mm 1001.2 mb 12 mph 91% 41%
16:00   1001.8 mb 12 mph 92% 38%
17:00   1002.4 mb 12 mph 90% 35%
18:00   1003.1 mb 11 mph 90% 9%
19:00   1003.5 mb 10 mph 91% 2%
20:00   1003.9 mb 10 mph 90% 6%
21:00   1004.1 mb 9 mph 90% 2%
22:00   1004.5 mb 9 mph 89% 0%
23:00   1004.6 mb 9 mph 87% 0%
 08:05     16:00 Tomorrow
00:00   1004.4 mb 7 mph 88% 1%
01:00   1003.9 mb 6 mph 90% 9%
02:00   1003.1 mb 8 mph 92% 90%
03:00   1002.1 mb 9 mph 91% 97%
04:00   1000.8 mb 10 mph 87% 77%
05:00   999.3 mb 10 mph 85% 100%
06:00 0.1 mm 998.1 mb 11 mph 86% 98%
07:00 0.3 mm 996.4 mb 14 mph 89% 99%
08:00 0.3 mm 994.2 mb 15 mph 91% 99%
09:00   992.3 mb 14 mph 90% 100%
10:00 0.1 mm 990.0 mb 14 mph 93% 100%
11:00 1.6 mm 987.5 mb 14 mph 94% 100%
12:00 2.3 mm 984.6 mb 16 mph 93% 100%
13:00 1.8 mm 982.4 mb 15 mph 88% 99%
14:00 1.5 mm 980.1 mb 14 mph 91% 100%
15:00 0.5 mm 979.2 mb 14 mph 93% 100%
16:00   979.0 mb 19 mph 91% 38%
17:00   979.1 mb 17 mph 90% 2%
18:00   978.6 mb 14 mph 91% 29%
19:00   977.8 mb 16 mph 91% 100%
20:00 0.5 mm 976.5 mb 15 mph 93% 92%
21:00 1.5 mm 975.3 mb 13 mph 87% 77%
22:00 2.0 mm 974.2 mb 17 mph 94% 100%
23:00 0.7 mm 973.8 mb 19 mph 86% 97%
 08:06     16:00 Friday 13.12.2019
00:00   973.9 mb 20 mph 85% 31%
01:00   974.2 mb 20 mph 84% 16%
02:00   974.4 mb 19 mph 84% 12%
03:00   974.8 mb 19 mph 83% 11%
04:00   975.1 mb 19 mph 81% 13%
05:00   975.7 mb 20 mph 78% 55%
06:00 0.3 mm 976.8 mb 20 mph 78% 60%
07:00 0.1 mm 977.8 mb 20 mph 78% 53%
08:00 0.1 mm 979.1 mb 20 mph 77% 84%
09:00 0.9 mm 980.4 mb 20 mph 77% 70%
10:00   981.6 mb 21 mph 74% 57%
11:00   982.7 mb 21 mph 69% 75%
12:00   983.4 mb 20 mph 68% 64%
13:00   983.8 mb 22 mph 67% 41%
14:00   984.3 mb 24 mph 68% 28%
15:00   985.2 mb 23 mph 69% 29%
16:00   985.6 mb 21 mph 71% 15%
17:00   985.8 mb 20 mph 72% 38%
18:00   985.7 mb 17 mph 72% 93%
19:00   985.1 mb 15 mph 70% 92%
20:00 0.1 mm 984.0 mb 13 mph 83% 88%
21:00 0.3 mm 982.5 mb 11 mph 91% 96%
22:00 0.3 mm 980.6 mb 10 mph 91% 100%
23:00 0.3 mm 978.8 mb 19 mph 87% 65%
 08:07     16:00 Saturday 14.12.2019
00:00 0.2 mm 978.7 mb 20 mph 89% 60%
06:00 0.2 mm 989.0 mb 21 mph 71% 36%
12:00 0.2 mm 994.7 mb 23 mph 63% 23%
18:00   998.7 mb 11 mph 67% 25%
 08:07     16:00 Sunday 15.12.2019
00:00   994.0 mb 16 mph 88% 100%
06:00 2.6 mm 991.7 mb 9 mph 90% 81%
12:00   993.1 mb 13 mph 81% 7%
18:00 0.1 mm 995.0 mb 13 mph 85% 77%
 08:08     16:01 Monday 16.12.2019
00:00   998.4 mb 11 mph 86% 18%
06:00   1000.9 mb 9 mph 88% 100%
12:00   1002.9 mb 6 mph 79% 100%
18:00   1002.3 mb 4 mph 94% 99%
 08:09     16:01 Tuesday 17.12.2019
00:00   1001.7 mb 4 mph 98% 100%
06:00 0.1 mm 1002.9 mb 5 mph 99% 100%
12:00 0.4 mm 1004.8 mb 6 mph 96% 100%
18:00 0.4 mm 1007.5 mb 6 mph 91% 100%
 08:10     16:01 Wednesday 18.12.2019
00:00   1010.7 mb 5 mph 97% 0%
06:00   1012.8 mb 1 mph 98% 93%
12:00   1014.2 mb 6 mph 87% 23%
18:00   1012.9 mb 10 mph 96% 100%
 08:10     16:01 Thursday 19.12.2019
00:00   1011.0 mb 12 mph 93% 83%
06:00   1007.5 mb 12 mph 93% 80%
12:00   1005.6 mb 14 mph 90% 24%
18:00   1003.4 mb 11 mph 93% 100%
 08:11     16:02 Friday 20.12.2019
00:00   999.9 mb 11 mph 98% 100%
06:00   993.9 mb 15 mph 95% 100%
12:00 0.3 mm 989.5 mb 17 mph 93% 100%
18:00 6.0 mm 982.4 mb 19 mph 92% 100%